KMGY/MGY METAR and TAF weather

Enter ICAO airport designator
Station Type Date Time Source
KMGY METAR 2019/10/20 19:53 UTC NOAA

KMGY 201953Z AUTO VRB03KT 10SM CLR 23/10 A2988 RMK AO2 SLP112 T02330100


Station Type Date Time Source
KMGY Decoded METAR 2019/10/20 19:53 UTC NOAA

DAYTON WRIGHT BROTHERS AIRPORT , OH, United States (KMGY) 39-36N 84-14W 289M
Oct 20, 2019 - 03:53 PM EDT / 2019.10.20 1953 UTC
Wind: Variable at 3 MPH (3 KT):0
Visibility: 10 mile(s):0
Sky conditions: clear
Temperature: 73.9 F (23.3 C)
Dew Point: 50.0 F (10.0 C)
Relative Humidity: 42%
Pressure (altimeter): 29.88 in. Hg (1011 hPa)
ob: KMGY 201953Z AUTO VRB03KT 10SM CLR 23/10 A2988 RMK AO2 SLP112 T02330100
cycle: 20

Station Type Date Time Source
KMGY TAF UTC NOAA

Error!

Example: see airport list